Natathlon (1) - Lyonnais (4)

Régionale

VÉNISSIEUX

Du Samedi 11 Decembre 2004 au Dimanche 12 Decembre 2004

Bassin de 25m

50 Brasse Dames

Séries

Nom Année Club Pays Temps Points Niv.
1 LUSTIG Elsa 1992 EMS BRON FRA 0:38:38 1027
2 KEBBAB Farha 1992 SAL ST-PRIEST NATATION FRA 0:39:09 994
3 JUGNIOT Natacha 1992 TRITON CLUB BELLEVILLE FRA 0:39:15 992
4 DAILLAND Margaux 1992 VIENNE DISTRICT NATATION FRA 0:39:70 967
5 FLATOT Charley 1992 TRITON CLUB BELLEVILLE FRA 0:40:41 935
6 BRACHET Cindy 1992 AC DÉCINES FRA 0:41:05 908
7 MARIS Léa 1992 EMS BRON FRA 0:41:73 878
8 VEUILLET Manon 1992 ASPTT LYON FRA 0:42:59 842
9 SIMON Johanna 1993 EMS BRON FRA 0:42:69 838
10 ROCHETTE Lucie 1992 RILLIEUX NATATION FRA 0:43:51 804
11 EMONARD Margot 1993 ND VILLEFRANCHE-EN-BEAUJOLAIS FRA 0:44:10 780
12 PONTILLE Laura 1992 CHASSIEU NATATION FRA 0:44:10 780
13 CARCELES Mandy 1992 SAL ST-PRIEST NATATION FRA 0:44:11 780
14 BURICAND Mélissa 1992 CN TARARE FRA 0:44:17 778
15 JOURDAN Andréa 1992 EMS BRON FRA 0:44:62 760
16 POULAIN Marine 1993 ND VILLEFRANCHE-EN-BEAUJOLAIS FRA 0:45:13 740
17 SCHOCH Armelle 1992 ASPTT LYON FRA 0:45:26 735
18 DAVIN Mélanie 1993 EMS BRON FRA 0:45:61 721
19 JALLOT Delphine 1992 AS CALUIRE FRA 0:45:70 718
20 DIAS Stella 1993 VILLEURBANNE NATATION FRA 0:45:77 715
21 CHIBI Hind 1992 EMS BRON FRA 0:45:86 711
22 PERRIN Joséphine 1993 CMO VÉNISSIEUX FRA 0:45:94 708
23 GINIES Victoria 1993 CHASSIEU NATATION FRA 0:46:09 703
24 FORT Camille 1992 AS CALUIRE FRA 0:46:37 692
25 MARTINASSO Joanna 1992 LYON NATATION FRA 0:46:43 690
26 CHEMINEAU Adelie 1993 AS CALUIRE FRA 0:46:47 688
27 RIBEIRO Mélissa 1993 CMO VÉNISSIEUX FRA 0:46:50 687
28 TYMEN Alizée 1992 SAL ST-PRIEST NATATION FRA 0:46:58 684
29 FOURARI Ryzelene 1993 EMS BRON FRA 0:46:66 681
30 NGUYEN-LACHAISE Alexandra 1993 VILLEURBANNE NATATION FRA 0:46:72 679
31 GARCIA Cyrielle 1992 SAL ST-PRIEST NATATION FRA 0:47:13 664
32 TARDY Camille 1993 ND VILLEFRANCHE-EN-BEAUJOLAIS FRA 0:47:13 664
33 MASSON Cyrielle 1992 AS CALUIRE FRA 0:47:18 662
34 NGO Lina 1993 ASPTT LYON FRA 0:47:24 660
35 AMOUYAL Zoé 1992 EMS BRON FRA 0:47:35 655
36 MAZZOLA Marjorie 1993 EMS BRON FRA 0:47:36 655
37 ABRIAL Julie 1993 CMO VÉNISSIEUX FRA 0:47:36 655
38 BOTRABY Nisrine 1992 AC DÉCINES FRA 0:47:60 646
39 GOUAT Audrey 1992 AS CALUIRE FRA 0:47:63 645
40 SENOSIAIN Léa 1993 VIENNE DISTRICT NATATION FRA 0:47:64 645
41 MELIH Amel 1993 AC DÉCINES FRA 0:48:14 627
42 GHELMA Marie 1992 VIENNE DISTRICT NATATION FRA 0:48:65 609
43 SORIA Jessica 1992 SAUVETEURS GIVORS FRA 0:48:67 608
44 PIETRI Léa 1993 ASPTT LYON FRA 0:48:76 605
45 PAMEOLE Olivia 1993 CMO VÉNISSIEUX FRA 0:48:94 598
46 THEVENON Lena 1993 SAUVETEURS GIVORS FRA 0:49:06 594
47 GENOULAZ Caroline 1992 AS CALUIRE FRA 0:49:12 592
48 MECHKAR Lyana 1993 EMS BRON FRA 0:49:70 572
49 DEVILLERS Isaline 1992 TRITON CLUB BELLEVILLE FRA 0:49:82 568
50 DEBBOUS Maywenn 1992 SAUVETEURS GIVORS FRA 0:49:88 566
51 MALOT Laura 1993 SAUVETEURS GIVORS FRA 0:50:01 561
52 NACHAR Karen 1993 VILLEURBANNE NATATION FRA 0:50:08 559
53 AMEROUCHE Laurana 1992 SAUVETEURS GIVORS FRA 0:50:42 547
54 MOREIRA Gwendoline 1993 SAL ST-PRIEST NATATION FRA 0:50:42 547
55 LAMAIN Anais 1992 ND VILLEFRANCHE-EN-BEAUJOLAIS FRA 0:50:48 545
56 PIACENZA Oceane 1992 SAUVETEURS GIVORS FRA 0:50:77 536
57 BRUN Laura 1993 ND VILLEFRANCHE-EN-BEAUJOLAIS FRA 0:51:25 520
58 HANI Sarah 1992 VILLEURBANNE NATATION FRA 0:51:38 516
59 DUBOIS Marlène 1992 ND VILLEFRANCHE-EN-BEAUJOLAIS FRA 0:51:54 510
60 BOUVIER Lauren 1992 LYON NATATION FRA 0:51:67 506
61 POTELLE Clelia 1992 AS CALUIRE FRA 0:51:71 505
62 CHET Stephie 1992 ND VILLEFRANCHE-EN-BEAUJOLAIS FRA 0:51:82 501
63 NOUGBODOHOUE Joëlle 1993 EMS BRON FRA 0:52:18 490
64 AMBLARD Camille 1992 CHASSIEU NATATION FRA 0:52:19 490
65 MALHERBE Constance 1992 ASPTT LYON FRA 0:52:23 488
66 LAFARGE Manon 1992 VILLEURBANNE NATATION FRA 0:52:32 486
67 AUGAGNEUR Julie 1992 VIENNE DISTRICT NATATION FRA 0:52:70 474
68 JOSEPH Célia 1993 LYON NATATION FRA 0:52:76 472
69 PINQUIER Justine 1993 AC DÉCINES FRA 0:52:82 470
70 HEMY Marion 1992 SAL ST-PRIEST NATATION FRA 0:52:93 466
71 MIROUX Justine 1993 LYON NATATION FRA 0:53:16 459
72 ZEREZ Mélanie 1992 CMO VÉNISSIEUX FRA 0:53:26 456
73 VIEUX Mathilde 1992 LYON NATATION FRA 0:53:53 448
74 GELEY Laurine 1992 CHASSIEU NATATION FRA 0:53:76 441
75 LABE Valentine 1993 EMS BRON FRA 0:55:74 383
76 CROLE Emilande 1993 VILLEURBANNE NATATION FRA 0:56:98 349
77 DAVID Anne-Sophie 1992 AS CALUIRE FRA 0:57:28 341
78 DOUIBI Marie 1993 CHASSIEU NATATION FRA 0:57:92 324
79 THEVENARD Sophie 1993 AS CALUIRE FRA 0:58:48 310
80 THENOT Justine 1993 VILLEURBANNE NATATION FRA 0:59:86 276
81 COSTE Chloé 1993 ND VILLEFRANCHE-EN-BEAUJOLAIS FRA - Disq.
82 MATTEI Marine 1992 SAL ST-PRIEST NATATION FRA - Disq.
83 VERDIER Juliette 1993 VILLEURBANNE NATATION FRA - Disq.
84 TOCCO Sandra 1992 EMS BRON FRA - Disq.
85 GRENOUILLET Morgane 1993 SAUVETEURS GIVORS FRA - Disq.
86 NEVEU Florence 1993 ND VILLEFRANCHE-EN-BEAUJOLAIS FRA - Disq.
87 GREGORIADIS Sandra 1992 SAUVETEURS GIVORS FRA - Disq.
88 OUAHNICH Christelle 1992 SAUVETEURS GIVORS FRA - Disq.
89 BON Bénédicte 1993 LYON NATATION FRA - Disq.